sensor_id;sensor_type;location;lat;lon;timestamp;temperature;humidity
4399;DHT22;2213;49.720;7.296;2023-02-03T00:00:42;7.20;99.90
4399;DHT22;2213;49.720;7.296;2023-02-03T00:03:12;7.20;99.90
4399;DHT22;2213;49.720;7.296;2023-02-03T00:05:42;7.20;99.90
4399;DHT22;2213;49.720;7.296;2023-02-03T00:08:12;7.20;99.90
4399;DHT22;2213;49.720;7.296;2023-02-03T00:10:45;7.20;99.90
4399;DHT22;2213;49.720;7.296;2023-02-03T00:13:15;7.10;99.90
4399;DHT22;2213;49.720;7.296;2023-02-03T00:15:44;7.10;99.90
4399;DHT22;2213;49.720;7.296;2023-02-03T00:18:14;7.20;99.90
4399;DHT22;2213;49.720;7.296;2023-02-03T00:20:45;7.10;99.90
4399;DHT22;2213;49.720;7.296;2023-02-03T00:23:15;7.10;99.90
4399;DHT22;2213;49.720;7.296;2023-02-03T00:25:46;7.10;99.90
4399;DHT22;2213;49.720;7.296;2023-02-03T00:28:17;7.20;99.90
4399;DHT22;2213;49.720;7.296;2023-02-03T00:30:47;7.10;99.90
4399;DHT22;2213;49.720;7.296;2023-02-03T00:33:21;7.10;99.90
4399;DHT22;2213;49.720;7.296;2023-02-03T00:35:50;7.20;99.90
4399;DHT22;2213;49.720;7.296;2023-02-03T00:38:19;7.10;99.90
4399;DHT22;2213;49.720;7.296;2023-02-03T00:40:52;7.20;99.90
4399;DHT22;2213;49.720;7.296;2023-02-03T00:43:23;7.10;99.90
4399;DHT22;2213;49.720;7.296;2023-02-03T00:45:52;7.10;99.90
4399;DHT22;2213;49.720;7.296;2023-02-03T00:48:21;7.20;99.90
4399;DHT22;2213;49.720;7.296;2023-02-03T00:50:51;7.10;99.90
4399;DHT22;2213;49.720;7.296;2023-02-03T00:53:21;7.20;99.90
4399;DHT22;2213;49.720;7.296;2023-02-03T00:55:52;7.20;99.90
4399;DHT22;2213;49.720;7.296;2023-02-03T00:58:22;7.10;99.90
4399;DHT22;2213;49.720;7.296;2023-02-03T01:00:54;7.20;99.90
4399;DHT22;2213;49.720;7.296;2023-02-03T01:03:25;7.20;99.90
4399;DHT22;2213;49.720;7.296;2023-02-03T01:05:55;7.20;99.90
4399;DHT22;2213;49.720;7.296;2023-02-03T01:08:24;7.20;99.90
4399;DHT22;2213;49.720;7.296;2023-02-03T01:10:55;7.10;99.90
4399;DHT22;2213;49.720;7.296;2023-02-03T01:13:24;7.20;99.90
4399;DHT22;2213;49.720;7.296;2023-02-03T01:15:54;7.10;99.90
4399;DHT22;2213;49.720;7.296;2023-02-03T01:18:23;7.10;99.90
4399;DHT22;2213;49.720;7.296;2023-02-03T01:20:53;7.10;99.90
4399;DHT22;2213;49.720;7.296;2023-02-03T01:23:23;7.20;99.90
4399;DHT22;2213;49.720;7.296;2023-02-03T01:25:52;7.00;99.90
4399;DHT22;2213;49.720;7.296;2023-02-03T01:28:23;7.20;99.90
4399;DHT22;2213;49.720;7.296;2023-02-03T01:30:54;7.10;99.90
4399;DHT22;2213;49.720;7.296;2023-02-03T01:33:24;7.10;99.90
4399;DHT22;2213;49.720;7.296;2023-02-03T01:35:55;7.10;99.90
4399;DHT22;2213;49.720;7.296;2023-02-03T01:38:27;7.10;99.90
4399;DHT22;2213;49.720;7.296;2023-02-03T01:40:58;7.00;99.90
4399;DHT22;2213;49.720;7.296;2023-02-03T01:43:30;7.00;99.90
4399;DHT22;2213;49.720;7.296;2023-02-03T01:46:03;7.10;99.90
4399;DHT22;2213;49.720;7.296;2023-02-03T01:48:41;7.10;99.90
4399;DHT22;2213;49.720;7.296;2023-02-03T01:51:11;7.20;99.90
4399;DHT22;2213;49.720;7.296;2023-02-03T01:53:42;7.10;99.90
4399;DHT22;2213;49.720;7.296;2023-02-03T01:56:15;7.10;99.90
4399;DHT22;2213;49.720;7.296;2023-02-03T01:58:46;7.00;99.90
4399;DHT22;2213;49.720;7.296;2023-02-03T02:01:18;7.00;99.90
4399;DHT22;2213;49.720;7.296;2023-02-03T02:03:51;7.10;99.90
4399;DHT22;2213;49.720;7.296;2023-02-03T02:06:24;7.10;99.90
4399;DHT22;2213;49.720;7.296;2023-02-03T02:08:54;7.10;99.90
4399;DHT22;2213;49.720;7.296;2023-02-03T02:11:28;7.10;99.90
4399;DHT22;2213;49.720;7.296;2023-02-03T02:14:00;7.10;99.90
4399;DHT22;2213;49.720;7.296;2023-02-03T02:16:39;7.00;99.90
4399;DHT22;2213;49.720;7.296;2023-02-03T02:19:47;7.00;99.90
4399;DHT22;2213;49.720;7.296;2023-02-03T02:23:02;7.00;99.90
4399;DHT22;2213;49.720;7.296;2023-02-03T02:26:11;7.00;99.90
4399;DHT22;2213;49.720;7.296;2023-02-03T02:29:51;7.00;99.90
4399;DHT22;2213;49.720;7.296;2023-02-03T02:33:01;7.10;99.90
4399;DHT22;2213;49.720;7.296;2023-02-03T02:35:45;7.00;99.90
4399;DHT22;2213;49.720;7.296;2023-02-03T02:38:28;7.10;99.90
4399;DHT22;2213;49.720;7.296;2023-02-03T02:41:11;7.10;99.90
4399;DHT22;2213;49.720;7.296;2023-02-03T02:43:54;7.10;99.90
4399;DHT22;2213;49.720;7.296;2023-02-03T02:46:32;7.20;99.90
4399;DHT22;2213;49.720;7.296;2023-02-03T02:49:11;7.10;99.90
4399;DHT22;2213;49.720;7.296;2023-02-03T02:51:44;7.10;99.90
4399;DHT22;2213;49.720;7.296;2023-02-03T02:54:18;7.10;99.90
4399;DHT22;2213;49.720;7.296;2023-02-03T02:56:53;7.10;99.90
4399;DHT22;2213;49.720;7.296;2023-02-03T02:59:25;7.10;99.90
4399;DHT22;2213;49.720;7.296;2023-02-03T03:01:54;7.10;99.90
4399;DHT22;2213;49.720;7.296;2023-02-03T03:04:25;7.10;99.90
4399;DHT22;2213;49.720;7.296;2023-02-03T03:06:59;7.00;99.90
4399;DHT22;2213;49.720;7.296;2023-02-03T03:09:35;7.10;99.90
4399;DHT22;2213;49.720;7.296;2023-02-03T03:12:13;7.10;99.90
4399;DHT22;2213;49.720;7.296;2023-02-03T03:14:49;7.10;99.90
4399;DHT22;2213;49.720;7.296;2023-02-03T03:17:26;7.20;99.90
4399;DHT22;2213;49.720;7.296;2023-02-03T03:20:03;7.10;99.90
4399;DHT22;2213;49.720;7.296;2023-02-03T03:22:42;7.10;99.90
4399;DHT22;2213;49.720;7.296;2023-02-03T03:25:16;7.20;99.90
4399;DHT22;2213;49.720;7.296;2023-02-03T03:27:53;7.20;99.90
4399;DHT22;2213;49.720;7.296;2023-02-03T03:30:29;7.20;99.90
4399;DHT22;2213;49.720;7.296;2023-02-03T03:33:02;7.20;99.90
4399;DHT22;2213;49.720;7.296;2023-02-03T03:35:40;7.10;99.90
4399;DHT22;2213;49.720;7.296;2023-02-03T03:38:22;7.10;99.90
4399;DHT22;2213;49.720;7.296;2023-02-03T03:41:02;7.10;99.90
4399;DHT22;2213;49.720;7.296;2023-02-03T03:43:38;7.20;99.90
4399;DHT22;2213;49.720;7.296;2023-02-03T03:46:13;7.20;99.90
4399;DHT22;2213;49.720;7.296;2023-02-03T03:48:51;7.20;99.90
4399;DHT22;2213;49.720;7.296;2023-02-03T03:51:28;7.20;99.90
4399;DHT22;2213;49.720;7.296;2023-02-03T03:54:04;7.20;99.90
4399;DHT22;2213;49.720;7.296;2023-02-03T03:56:40;7.20;99.90
4399;DHT22;2213;49.720;7.296;2023-02-03T03:59:19;7.10;99.90
4399;DHT22;2213;49.720;7.296;2023-02-03T04:01:51;7.10;99.90
4399;DHT22;2213;49.720;7.296;2023-02-03T04:04:22;7.10;99.90
4399;DHT22;2213;49.720;7.296;2023-02-03T04:06:54;7.20;99.90
4399;DHT22;2213;49.720;7.296;2023-02-03T04:09:24;7.20;99.90
4399;DHT22;2213;49.720;7.296;2023-02-03T04:11:54;7.20;99.90
4399;DHT22;2213;49.720;7.296;2023-02-03T04:14:34;7.20;99.90
4399;DHT22;2213;49.720;7.296;2023-02-03T04:17:05;7.10;99.90
4399;DHT22;2213;49.720;7.296;2023-02-03T04:19:34;7.20;99.90
4399;DHT22;2213;49.720;7.296;2023-02-03T04:22:05;7.20;99.90
4399;DHT22;2213;49.720;7.296;2023-02-03T04:24:34;7.20;99.90
4399;DHT22;2213;49.720;7.296;2023-02-03T04:27:04;7.20;99.90
4399;DHT22;2213;49.720;7.296;2023-02-03T04:29:34;7.10;99.90
4399;DHT22;2213;49.720;7.296;2023-02-03T04:32:04;7.20;99.90
4399;DHT22;2213;49.720;7.296;2023-02-03T04:34:34;7.10;99.90
4399;DHT22;2213;49.720;7.296;2023-02-03T04:37:04;7.10;99.90
4399;DHT22;2213;49.720;7.296;2023-02-03T04:39:35;7.20;99.90
4399;DHT22;2213;49.720;7.296;2023-02-03T04:42:04;7.20;99.90
4399;DHT22;2213;49.720;7.296;2023-02-03T04:44:33;7.00;99.90
4399;DHT22;2213;49.720;7.296;2023-02-03T04:47:04;7.00;99.90
4399;DHT22;2213;49.720;7.296;2023-02-03T04:49:33;7.10;99.90
4399;DHT22;2213;49.720;7.296;2023-02-03T04:52:04;7.10;99.90
4399;DHT22;2213;49.720;7.296;2023-02-03T04:54:33;7.00;99.90
4399;DHT22;2213;49.720;7.296;2023-02-03T04:57:04;7.00;99.90
4399;DHT22;2213;49.720;7.296;2023-02-03T04:59:34;7.10;99.90
4399;DHT22;2213;49.720;7.296;2023-02-03T05:02:04;7.10;99.90
4399;DHT22;2213;49.720;7.296;2023-02-03T05:04:34;7.10;99.90
4399;DHT22;2213;49.720;7.296;2023-02-03T05:07:05;7.10;99.90
4399;DHT22;2213;49.720;7.296;2023-02-03T05:09:35;7.10;99.90
4399;DHT22;2213;49.720;7.296;2023-02-03T05:12:06;7.10;99.90
4399;DHT22;2213;49.720;7.296;2023-02-03T05:14:37;7.10;99.90
4399;DHT22;2213;49.720;7.296;2023-02-03T05:17:07;7.10;99.90
4399;DHT22;2213;49.720;7.296;2023-02-03T05:19:36;7.00;99.90
4399;DHT22;2213;49.720;7.296;2023-02-03T05:22:07;7.10;99.90
4399;DHT22;2213;49.720;7.296;2023-02-03T05:24:38;7.10;99.90
4399;DHT22;2213;49.720;7.296;2023-02-03T05:27:07;7.20;99.90
4399;DHT22;2213;49.720;7.296;2023-02-03T05:29:38;7.20;99.90
4399;DHT22;2213;49.720;7.296;2023-02-03T05:32:07;7.10;99.90
4399;DHT22;2213;49.720;7.296;2023-02-03T05:34:37;7.10;99.90
4399;DHT22;2213;49.720;7.296;2023-02-03T05:37:10;7.20;99.90
4399;DHT22;2213;49.720;7.296;2023-02-03T05:39:40;7.20;99.90
4399;DHT22;2213;49.720;7.296;2023-02-03T05:42:09;7.10;99.90
4399;DHT22;2213;49.720;7.296;2023-02-03T05:44:39;7.10;99.90
4399;DHT22;2213;49.720;7.296;2023-02-03T05:47:09;7.20;99.90
4399;DHT22;2213;49.720;7.296;2023-02-03T05:49:38;7.20;99.90
4399;DHT22;2213;49.720;7.296;2023-02-03T05:52:09;7.20;99.90
4399;DHT22;2213;49.720;7.296;2023-02-03T05:54:39;7.10;99.90
4399;DHT22;2213;49.720;7.296;2023-02-03T05:57:11;7.20;99.90
4399;DHT22;2213;49.720;7.296;2023-02-03T05:59:41;7.20;99.90
4399;DHT22;2213;49.720;7.296;2023-02-03T06:02:10;7.20;99.90
4399;DHT22;2213;49.720;7.296;2023-02-03T06:04:41;7.20;99.90
4399;DHT22;2213;49.720;7.296;2023-02-03T06:07:11;7.20;99.90
4399;DHT22;2213;49.720;7.296;2023-02-03T06:09:42;7.30;99.90
4399;DHT22;2213;49.720;7.296;2023-02-03T06:12:11;7.30;99.90
4399;DHT22;2213;49.720;7.296;2023-02-03T06:14:40;7.20;99.90
4399;DHT22;2213;49.720;7.296;2023-02-03T06:17:10;7.30;99.90
4399;DHT22;2213;49.720;7.296;2023-02-03T06:19:39;7.30;99.90
4399;DHT22;2213;49.720;7.296;2023-02-03T06:22:08;7.30;99.90
4399;DHT22;2213;49.720;7.296;2023-02-03T06:24:40;7.30;99.90
4399;DHT22;2213;49.720;7.296;2023-02-03T06:27:12;7.30;99.90
4399;DHT22;2213;49.720;7.296;2023-02-03T06:29:41;7.30;99.90
4399;DHT22;2213;49.720;7.296;2023-02-03T06:32:11;7.30;99.90
4399;DHT22;2213;49.720;7.296;2023-02-03T06:34:40;7.40;99.90
4399;DHT22;2213;49.720;7.296;2023-02-03T06:37:11;7.30;99.90
4399;DHT22;2213;49.720;7.296;2023-02-03T06:39:40;7.30;99.90
4399;DHT22;2213;49.720;7.296;2023-02-03T06:42:10;7.30;99.90
4399;DHT22;2213;49.720;7.296;2023-02-03T06:44:39;7.30;99.90
4399;DHT22;2213;49.720;7.296;2023-02-03T06:47:10;7.30;99.90
4399;DHT22;2213;49.720;7.296;2023-02-03T06:49:39;7.40;99.90
4399;DHT22;2213;49.720;7.296;2023-02-03T06:52:08;7.30;99.90
4399;DHT22;2213;49.720;7.296;2023-02-03T06:54:40;7.30;99.90
4399;DHT22;2213;49.720;7.296;2023-02-03T06:57:10;7.30;99.90
4399;DHT22;2213;49.720;7.296;2023-02-03T06:59:39;7.40;99.90
4399;DHT22;2213;49.720;7.296;2023-02-03T07:02:09;7.40;99.90
4399;DHT22;2213;49.720;7.296;2023-02-03T07:04:39;7.30;99.90
4399;DHT22;2213;49.720;7.296;2023-02-03T07:07:13;7.30;99.90
4399;DHT22;2213;49.720;7.296;2023-02-03T07:09:42;7.30;99.90
4399;DHT22;2213;49.720;7.296;2023-02-03T07:12:12;7.30;99.90
4399;DHT22;2213;49.720;7.296;2023-02-03T07:14:41;7.40;99.90
4399;DHT22;2213;49.720;7.296;2023-02-03T07:17:13;7.40;99.90
4399;DHT22;2213;49.720;7.296;2023-02-03T07:19:42;7.40;99.90
4399;DHT22;2213;49.720;7.296;2023-02-03T07:22:13;7.30;99.90
4399;DHT22;2213;49.720;7.296;2023-02-03T07:24:43;7.40;99.90
4399;DHT22;2213;49.720;7.296;2023-02-03T07:27:12;7.40;99.90
4399;DHT22;2213;49.720;7.296;2023-02-03T07:29:42;7.40;99.90
4399;DHT22;2213;49.720;7.296;2023-02-03T07:32:12;7.30;99.90
4399;DHT22;2213;49.720;7.296;2023-02-03T07:34:42;7.30;99.90
4399;DHT22;2213;49.720;7.296;2023-02-03T07:37:12;7.50;99.90
4399;DHT22;2213;49.720;7.296;2023-02-03T07:39:41;7.40;99.90
4399;DHT22;2213;49.720;7.296;2023-02-03T07:42:13;7.40;99.90
4399;DHT22;2213;49.720;7.296;2023-02-03T07:44:43;7.30;99.90
4399;DHT22;2213;49.720;7.296;2023-02-03T07:47:14;7.40;99.90
4399;DHT22;2213;49.720;7.296;2023-02-03T07:49:43;7.40;99.90
4399;DHT22;2213;49.720;7.296;2023-02-03T07:52:15;7.40;99.90
4399;DHT22;2213;49.720;7.296;2023-02-03T07:54:47;7.40;99.90
4399;DHT22;2213;49.720;7.296;2023-02-03T07:57:16;7.50;99.90
4399;DHT22;2213;49.720;7.296;2023-02-03T07:59:45;7.40;99.90
4399;DHT22;2213;49.720;7.296;2023-02-03T08:02:14;7.40;99.90
4399;DHT22;2213;49.720;7.296;2023-02-03T08:04:44;7.30;99.90
4399;DHT22;2213;49.720;7.296;2023-02-03T08:07:15;7.40;99.90
4399;DHT22;2213;49.720;7.296;2023-02-03T08:09:45;7.50;99.90
4399;DHT22;2213;49.720;7.296;2023-02-03T08:12:15;7.60;99.90
4399;DHT22;2213;49.720;7.296;2023-02-03T08:14:45;7.50;99.90
4399;DHT22;2213;49.720;7.296;2023-02-03T08:17:15;7.50;99.90
4399;DHT22;2213;49.720;7.296;2023-02-03T08:19:45;7.60;99.90
4399;DHT22;2213;49.720;7.296;2023-02-03T08:22:16;7.60;99.90
4399;DHT22;2213;49.720;7.296;2023-02-03T08:24:47;7.60;99.90
4399;DHT22;2213;49.720;7.296;2023-02-03T08:27:20;7.60;99.90
4399;DHT22;2213;49.720;7.296;2023-02-03T08:29:51;7.50;99.90
4399;DHT22;2213;49.720;7.296;2023-02-03T08:32:21;7.60;99.90
4399;DHT22;2213;49.720;7.296;2023-02-03T08:34:52;7.60;99.90
4399;DHT22;2213;49.720;7.296;2023-02-03T08:37:24;7.50;99.90
4399;DHT22;2213;49.720;7.296;2023-02-03T08:39:54;7.60;99.90
4399;DHT22;2213;49.720;7.296;2023-02-03T08:42:23;7.50;99.90
4399;DHT22;2213;49.720;7.296;2023-02-03T08:44:52;7.60;99.90
4399;DHT22;2213;49.720;7.296;2023-02-03T08:47:23;7.60;99.90
4399;DHT22;2213;49.720;7.296;2023-02-03T08:49:53;7.60;99.90
4399;DHT22;2213;49.720;7.296;2023-02-03T08:52:24;7.50;99.90
4399;DHT22;2213;49.720;7.296;2023-02-03T08:54:54;7.60;99.90
4399;DHT22;2213;49.720;7.296;2023-02-03T08:57:24;7.60;99.90
4399;DHT22;2213;49.720;7.296;2023-02-03T08:59:53;7.60;99.90
4399;DHT22;2213;49.720;7.296;2023-02-03T09:02:22;7.70;99.90
4399;DHT22;2213;49.720;7.296;2023-02-03T09:04:52;7.70;99.90
4399;DHT22;2213;49.720;7.296;2023-02-03T09:07:23;7.70;99.90
4399;DHT22;2213;49.720;7.296;2023-02-03T09:09:52;7.80;99.90
4399;DHT22;2213;49.720;7.296;2023-02-03T09:12:21;7.60;99.90
4399;DHT22;2213;49.720;7.296;2023-02-03T09:14:51;7.80;99.90
4399;DHT22;2213;49.720;7.296;2023-02-03T09:17:21;7.80;99.90
4399;DHT22;2213;49.720;7.296;2023-02-03T09:19:52;7.80;99.90
4399;DHT22;2213;49.720;7.296;2023-02-03T09:22:24;7.80;99.90
4399;DHT22;2213;49.720;7.296;2023-02-03T09:24:53;7.80;99.90
4399;DHT22;2213;49.720;7.296;2023-02-03T09:27:23;7.80;99.90
4399;DHT22;2213;49.720;7.296;2023-02-03T09:29:52;7.90;99.90
4399;DHT22;2213;49.720;7.296;2023-02-03T09:32:21;7.80;99.90
4399;DHT22;2213;49.720;7.296;2023-02-03T09:34:51;7.80;99.90
4399;DHT22;2213;49.720;7.296;2023-02-03T09:37:21;7.90;99.90
4399;DHT22;2213;49.720;7.296;2023-02-03T09:39:54;7.80;99.90
4399;DHT22;2213;49.720;7.296;2023-02-03T09:42:42;7.70;99.90
4399;DHT22;2213;49.720;7.296;2023-02-03T09:45:25;7.80;99.90
4399;DHT22;2213;49.720;7.296;2023-02-03T09:47:59;7.90;99.90
4399;DHT22;2213;49.720;7.296;2023-02-03T09:50:34;7.90;99.90
4399;DHT22;2213;49.720;7.296;2023-02-03T09:53:19;7.90;99.90
4399;DHT22;2213;49.720;7.296;2023-02-03T09:55:55;8.00;99.90
4399;DHT22;2213;49.720;7.296;2023-02-03T09:58:31;8.10;99.90
4399;DHT22;2213;49.720;7.296;2023-02-03T10:01:02;8.20;99.90
4399;DHT22;2213;49.720;7.296;2023-02-03T10:03:44;8.10;99.90
4399;DHT22;2213;49.720;7.296;2023-02-03T10:06:25;8.10;99.90
4399;DHT22;2213;49.720;7.296;2023-02-03T10:09:11;8.00;99.90
4399;DHT22;2213;49.720;7.296;2023-02-03T10:12:07;8.10;99.90
4399;DHT22;2213;49.720;7.296;2023-02-03T10:15:40;8.10;99.90
4399;DHT22;2213;49.720;7.296;2023-02-03T10:18:31;8.10;99.90
4399;DHT22;2213;49.720;7.296;2023-02-03T10:21:11;8.20;99.90
4399;DHT22;2213;49.720;7.296;2023-02-03T10:23:46;8.10;99.90
4399;DHT22;2213;49.720;7.296;2023-02-03T10:26:20;8.10;99.90
4399;DHT22;2213;49.720;7.296;2023-02-03T10:28:55;8.00;99.90
4399;DHT22;2213;49.720;7.296;2023-02-03T10:31:27;7.90;99.90
4399;DHT22;2213;49.720;7.296;2023-02-03T10:34:08;8.10;99.90
4399;DHT22;2213;49.720;7.296;2023-02-03T10:36:47;8.00;99.90
4399;DHT22;2213;49.720;7.296;2023-02-03T10:39:30;8.00;99.90
4399;DHT22;2213;49.720;7.296;2023-02-03T10:42:06;7.90;99.90
4399;DHT22;2213;49.720;7.296;2023-02-03T10:44:41;7.90;99.90
4399;DHT22;2213;49.720;7.296;2023-02-03T10:47:24;7.90;99.90
4399;DHT22;2213;49.720;7.296;2023-02-03T10:49:58;7.90;99.90
4399;DHT22;2213;49.720;7.296;2023-02-03T10:52:33;7.90;99.90
4399;DHT22;2213;49.720;7.296;2023-02-03T10:55:05;8.10;99.90
4399;DHT22;2213;49.720;7.296;2023-02-03T10:57:41;8.10;99.90
4399;DHT22;2213;49.720;7.296;2023-02-03T11:00:22;8.10;99.90
4399;DHT22;2213;49.720;7.296;2023-02-03T11:02:58;8.00;99.90
4399;DHT22;2213;49.720;7.296;2023-02-03T11:05:33;8.20;99.90
4399;DHT22;2213;49.720;7.296;2023-02-03T11:08:03;8.10;99.90
4399;DHT22;2213;49.720;7.296;2023-02-03T11:10:42;8.10;99.90
4399;DHT22;2213;49.720;7.296;2023-02-03T11:13:18;8.00;99.90
4399;DHT22;2213;49.720;7.296;2023-02-03T11:15:57;8.20;99.90
4399;DHT22;2213;49.720;7.296;2023-02-03T11:18:43;8.20;99.90
4399;DHT22;2213;49.720;7.296;2023-02-03T11:21:21;8.20;99.90
4399;DHT22;2213;49.720;7.296;2023-02-03T11:23:56;8.20;99.90
4399;DHT22;2213;49.720;7.296;2023-02-03T11:26:34;8.10;99.90
4399;DHT22;2213;49.720;7.296;2023-02-03T11:29:16;8.20;99.90
4399;DHT22;2213;49.720;7.296;2023-02-03T11:31:52;8.10;99.90
4399;DHT22;2213;49.720;7.296;2023-02-03T11:34:26;8.00;99.90
4399;DHT22;2213;49.720;7.296;2023-02-03T11:37:22;8.20;99.90
4399;DHT22;2213;49.720;7.296;2023-02-03T11:39:55;8.20;99.90
4399;DHT22;2213;49.720;7.296;2023-02-03T11:42:42;8.20;99.90
4399;DHT22;2213;49.720;7.296;2023-02-03T11:45:22;8.20;99.90
4399;DHT22;2213;49.720;7.296;2023-02-03T11:47:55;8.20;99.90
4399;DHT22;2213;49.720;7.296;2023-02-03T11:50:28;8.20;99.90
4399;DHT22;2213;49.720;7.296;2023-02-03T11:53:18;8.20;99.90
4399;DHT22;2213;49.720;7.296;2023-02-03T11:56:16;8.20;99.90
4399;DHT22;2213;49.720;7.296;2023-02-03T12:02:36;8.20;99.90
4399;DHT22;2213;49.720;7.296;2023-02-03T12:06:00;8.20;99.90
4399;DHT22;2213;49.720;7.296;2023-02-03T12:08:50;8.20;99.90
4399;DHT22;2213;49.720;7.296;2023-02-03T12:11:43;8.20;99.90
4399;DHT22;2213;49.720;7.296;2023-02-03T12:14:39;8.20;99.90
4399;DHT22;2213;49.720;7.296;2023-02-03T12:17:43;8.20;99.90
4399;DHT22;2213;49.720;7.296;2023-02-03T12:20:40;8.10;99.90
4399;DHT22;2213;49.720;7.296;2023-02-03T12:23:29;8.20;99.90
4399;DHT22;2213;49.720;7.296;2023-02-03T12:26:16;8.00;99.90
4399;DHT22;2213;49.720;7.296;2023-02-03T12:29:00;8.10;99.90
4399;DHT22;2213;49.720;7.296;2023-02-03T12:31:36;8.00;99.90
4399;DHT22;2213;49.720;7.296;2023-02-03T12:34:17;8.10;99.90
4399;DHT22;2213;49.720;7.296;2023-02-03T12:36:55;7.80;99.90
4399;DHT22;2213;49.720;7.296;2023-02-03T12:39:32;8.00;99.90
4399;DHT22;2213;49.720;7.296;2023-02-03T12:42:14;8.00;99.90
4399;DHT22;2213;49.720;7.296;2023-02-03T12:44:53;8.10;99.90
4399;DHT22;2213;49.720;7.296;2023-02-03T12:47:30;8.10;99.90
4399;DHT22;2213;49.720;7.296;2023-02-03T12:50:13;8.10;99.90
4399;DHT22;2213;49.720;7.296;2023-02-03T12:52:51;8.10;99.90
4399;DHT22;2213;49.720;7.296;2023-02-03T12:55:33;8.10;99.90
4399;DHT22;2213;49.720;7.296;2023-02-03T12:58:08;8.10;99.90
4399;DHT22;2213;49.720;7.296;2023-02-03T13:00:42;8.20;99.90
4399;DHT22;2213;49.720;7.296;2023-02-03T13:03:18;8.10;99.90
4399;DHT22;2213;49.720;7.296;2023-02-03T13:06:01;8.10;99.90
4399;DHT22;2213;49.720;7.296;2023-02-03T13:08:41;8.10;99.90
4399;DHT22;2213;49.720;7.296;2023-02-03T13:11:21;8.10;99.90
4399;DHT22;2213;49.720;7.296;2023-02-03T13:13:59;8.00;99.90
4399;DHT22;2213;49.720;7.296;2023-02-03T13:16:34;8.00;99.90
4399;DHT22;2213;49.720;7.296;2023-02-03T13:19:14;8.00;99.90
4399;DHT22;2213;49.720;7.296;2023-02-03T13:21:49;8.20;99.90
4399;DHT22;2213;49.720;7.296;2023-02-03T13:24:22;8.30;99.90
4399;DHT22;2213;49.720;7.296;2023-02-03T13:27:21;8.30;99.90
4399;DHT22;2213;49.720;7.296;2023-02-03T13:30:21;8.30;99.90
4399;DHT22;2213;49.720;7.296;2023-02-03T13:33:43;8.20;99.90
4399;DHT22;2213;49.720;7.296;2023-02-03T13:37:01;8.30;99.90
4399;DHT22;2213;49.720;7.296;2023-02-03T13:40:08;8.30;99.90
4399;DHT22;2213;49.720;7.296;2023-02-03T13:42:50;8.30;99.90
4399;DHT22;2213;49.720;7.296;2023-02-03T13:45:26;8.30;99.90
4399;DHT22;2213;49.720;7.296;2023-02-03T13:48:08;8.30;99.90
4399;DHT22;2213;49.720;7.296;2023-02-03T13:50:44;8.30;99.90
4399;DHT22;2213;49.720;7.296;2023-02-03T13:53:20;8.30;99.90
4399;DHT22;2213;49.720;7.296;2023-02-03T13:55:54;8.30;99.90
4399;DHT22;2213;49.720;7.296;2023-02-03T13:58:28;8.40;99.90
4399;DHT22;2213;49.720;7.296;2023-02-03T14:01:27;8.50;99.90
4399;DHT22;2213;49.720;7.296;2023-02-03T14:04:05;8.50;99.90
4399;DHT22;2213;49.720;7.296;2023-02-03T14:06:54;8.30;99.90
4399;DHT22;2213;49.720;7.296;2023-02-03T14:09:43;8.40;99.90
4399;DHT22;2213;49.720;7.296;2023-02-03T14:15:33;8.50;99.90
4399;DHT22;2213;49.720;7.296;2023-02-03T14:18:30;8.40;99.90
4399;DHT22;2213;49.720;7.296;2023-02-03T14:21:18;8.50;99.90
4399;DHT22;2213;49.720;7.296;2023-02-03T14:24:02;8.50;99.90
4399;DHT22;2213;49.720;7.296;2023-02-03T14:26:40;8.60;99.90
4399;DHT22;2213;49.720;7.296;2023-02-03T14:29:25;8.40;99.90
4399;DHT22;2213;49.720;7.296;2023-02-03T14:31:57;8.40;99.90
4399;DHT22;2213;49.720;7.296;2023-02-03T14:34:33;8.50;99.90
4399;DHT22;2213;49.720;7.296;2023-02-03T14:37:17;8.40;99.90
4399;DHT22;2213;49.720;7.296;2023-02-03T14:40:26;8.50;99.90
4399;DHT22;2213;49.720;7.296;2023-02-03T14:43:19;8.50;99.90
4399;DHT22;2213;49.720;7.296;2023-02-03T14:46:25;8.40;99.90
4399;DHT22;2213;49.720;7.296;2023-02-03T14:49:23;8.40;99.90
4399;DHT22;2213;49.720;7.296;2023-02-03T14:52:19;8.40;99.90
4399;DHT22;2213;49.720;7.296;2023-02-03T14:55:09;8.50;99.90
4399;DHT22;2213;49.720;7.296;2023-02-03T14:58:18;8.50;99.90
4399;DHT22;2213;49.720;7.296;2023-02-03T15:00:54;8.50;99.90
4399;DHT22;2213;49.720;7.296;2023-02-03T15:03:26;8.30;99.90
4399;DHT22;2213;49.720;7.296;2023-02-03T15:05:59;8.50;99.90
4399;DHT22;2213;49.720;7.296;2023-02-03T15:08:40;8.40;99.90
4399;DHT22;2213;49.720;7.296;2023-02-03T15:11:30;8.30;99.90
4399;DHT22;2213;49.720;7.296;2023-02-03T15:14:21;8.40;99.90
4399;DHT22;2213;49.720;7.296;2023-02-03T15:16:57;8.40;99.90
4399;DHT22;2213;49.720;7.296;2023-02-03T15:19:31;8.30;99.90
4399;DHT22;2213;49.720;7.296;2023-02-03T15:22:17;8.20;99.90
4399;DHT22;2213;49.720;7.296;2023-02-03T15:24:50;8.20;99.90
4399;DHT22;2213;49.720;7.296;2023-02-03T15:27:22;8.10;99.90
4399;DHT22;2213;49.720;7.296;2023-02-03T15:29:54;8.00;99.90
4399;DHT22;2213;49.720;7.296;2023-02-03T15:32:29;8.20;99.90
4399;DHT22;2213;49.720;7.296;2023-02-03T15:35:10;8.20;99.90
4399;DHT22;2213;49.720;7.296;2023-02-03T15:37:47;8.30;99.90
4399;DHT22;2213;49.720;7.296;2023-02-03T15:40:21;8.40;99.90
4399;DHT22;2213;49.720;7.296;2023-02-03T15:43:00;8.20;99.90
4399;DHT22;2213;49.720;7.296;2023-02-03T15:45:39;8.20;99.90
4399;DHT22;2213;49.720;7.296;2023-02-03T15:48:16;8.20;99.90
4399;DHT22;2213;49.720;7.296;2023-02-03T15:50:59;8.30;99.90
4399;DHT22;2213;49.720;7.296;2023-02-03T15:53:44;8.10;99.90
4399;DHT22;2213;49.720;7.296;2023-02-03T15:56:21;8.20;99.90
4399;DHT22;2213;49.720;7.296;2023-02-03T15:59:02;8.10;99.90
4399;DHT22;2213;49.720;7.296;2023-02-03T16:01:33;8.00;99.90
4399;DHT22;2213;49.720;7.296;2023-02-03T16:04:08;8.20;99.90
4399;DHT22;2213;49.720;7.296;2023-02-03T16:06:43;8.20;99.90
4399;DHT22;2213;49.720;7.296;2023-02-03T16:09:38;8.00;99.90
4399;DHT22;2213;49.720;7.296;2023-02-03T16:12:20;8.00;99.90
4399;DHT22;2213;49.720;7.296;2023-02-03T16:14:53;8.00;99.90
4399;DHT22;2213;49.720;7.296;2023-02-03T16:17:28;8.20;99.90
4399;DHT22;2213;49.720;7.296;2023-02-03T16:20:19;8.10;99.90
4399;DHT22;2213;49.720;7.296;2023-02-03T16:23:03;8.10;99.90
4399;DHT22;2213;49.720;7.296;2023-02-03T16:26:03;8.20;99.90
4399;DHT22;2213;49.720;7.296;2023-02-03T16:28:36;8.20;99.90
4399;DHT22;2213;49.720;7.296;2023-02-03T16:31:21;8.10;99.90
4399;DHT22;2213;49.720;7.296;2023-02-03T16:34:14;8.10;99.90
4399;DHT22;2213;49.720;7.296;2023-02-03T16:37:09;8.10;99.90
4399;DHT22;2213;49.720;7.296;2023-02-03T16:39:56;8.10;99.90
4399;DHT22;2213;49.720;7.296;2023-02-03T16:42:43;8.10;99.90
4399;DHT22;2213;49.720;7.296;2023-02-03T16:45:30;8.10;99.90
4399;DHT22;2213;49.720;7.296;2023-02-03T16:48:17;8.10;99.90
4399;DHT22;2213;49.720;7.296;2023-02-03T16:51:10;8.10;99.90
4399;DHT22;2213;49.720;7.296;2023-02-03T16:53:43;8.20;99.90
4399;DHT22;2213;49.720;7.296;2023-02-03T16:56:15;8.20;99.90
4399;DHT22;2213;49.720;7.296;2023-02-03T16:58:46;8.30;99.90
4399;DHT22;2213;49.720;7.296;2023-02-03T17:01:16;8.20;99.90
4399;DHT22;2213;49.720;7.296;2023-02-03T17:03:46;8.20;99.90
4399;DHT22;2213;49.720;7.296;2023-02-03T17:06:17;8.20;99.90
4399;DHT22;2213;49.720;7.296;2023-02-03T17:08:46;8.30;99.90
4399;DHT22;2213;49.720;7.296;2023-02-03T17:11:19;8.30;99.90
4399;DHT22;2213;49.720;7.296;2023-02-03T17:13:50;8.30;99.90
4399;DHT22;2213;49.720;7.296;2023-02-03T17:16:21;8.30;99.90
4399;DHT22;2213;49.720;7.296;2023-02-03T17:18:52;8.40;99.90
4399;DHT22;2213;49.720;7.296;2023-02-03T17:21:25;8.40;99.90
4399;DHT22;2213;49.720;7.296;2023-02-03T17:23:57;8.50;99.90